Time;durP1;ratioP1;P1;durP2;ratioP2;P2;SDS_P1;SDS_P2;PMS_P1;PMS_P2;Temp;Humidity;BMP_temperature;BMP_pressure;BME280_temperature;BME280_humidity;BME280_pressure;Samples;Min_cycle;Max_cycle;Signal;HPM_P1;HPM_P2
2023/06/24 00:02:17;;;;;;;1999.90;999.90;;;17.10;99.90;;;;;;5035635;28;20405;-90
2023/06/24 00:04:42;;;;;;;1999.90;999.90;;;17.10;99.90;;;;;;5034276;28;20056;-90
2023/06/24 00:07:11;;;;;;;1999.90;999.90;;;17.10;99.90;;;;;;5043044;28;20389;-92
2023/06/24 00:09:37;;;;;;;1999.90;999.90;;;17.00;99.90;;;;;;5050701;28;20119;-90
2023/06/24 00:12:03;;;;;;;1999.90;999.90;;;16.90;99.90;;;;;;5048192;28;21921;-90
2023/06/24 00:14:29;;;;;;;1999.90;999.90;;;16.90;99.90;;;;;;5033616;28;20231;-90
2023/06/24 00:16:56;;;;;;;1999.90;999.90;;;16.90;99.90;;;;;;5053108;28;20493;-90
2023/06/24 00:19:26;;;;;;;1999.90;999.90;;;16.90;99.90;;;;;;5019997;28;20137;-89
2023/06/24 00:21:52;;;;;;;1999.90;999.90;;;16.90;99.90;;;;;;5053438;28;20056;-90
2023/06/24 00:24:19;;;;;;;1999.90;999.90;;;16.80;99.90;;;;;;5042256;28;20041;-89
2023/06/24 00:26:48;;;;;;;1999.90;999.90;;;16.70;99.90;;;;;;5037688;28;20049;-90
2023/06/24 00:29:15;;;;;;;1999.90;999.90;;;16.70;99.90;;;;;;5035687;28;20049;-90
2023/06/24 00:31:41;;;;;;;1999.90;999.90;;;16.70;99.90;;;;;;5050764;28;20067;-89
2023/06/24 00:34:07;;;;;;;1999.90;999.90;;;16.70;99.90;;;;;;5048434;28;20408;-90
2023/06/24 00:36:35;;;;;;;1999.90;999.90;;;16.60;99.90;;;;;;5035506;28;20752;-89
2023/06/24 00:39:03;;;;;;;1999.90;999.90;;;16.60;1.00;;;;;;5051221;28;20107;-89
2023/06/24 00:41:35;;;;;;;1999.90;999.90;;;16.60;1.00;;;;;;5032060;28;20041;-89
2023/06/24 00:44:01;;;;;;;1999.90;999.90;;;16.60;1.00;;;;;;5032880;28;20052;-89
2023/06/24 00:46:33;;;;;;;1999.90;999.90;;;16.60;1.00;;;;;;5018915;28;20091;-89
2023/06/24 00:49:00;;;;;;;1999.90;999.90;;;16.60;1.00;;;;;;5018101;28;20055;-89
2023/06/24 00:51:29;;;;;;;1999.90;999.90;;;16.50;1.00;;;;;;5036270;28;20393;-89
2023/06/24 00:53:55;;;;;;;1999.90;999.90;;;16.50;1.00;;;;;;5048902;28;20083;-89
2023/06/24 00:56:33;;;;;;;1999.90;999.90;;;16.50;1.00;;;;;;5015976;28;20069;-89
2023/06/24 00:59:02;;;;;;;1999.90;999.90;;;16.50;1.00;;;;;;5048640;28;20447;-90
2023/06/24 01:01:33;;;;;;;1999.90;999.90;;;16.50;1.00;;;;;;5026402;28;20049;-90
2023/06/24 01:03:59;;;;;;;1999.90;999.90;;;16.50;1.00;;;;;;5050584;28;20044;-90
2023/06/24 01:06:28;;;;;;;1999.90;999.90;;;16.50;1.00;;;;;;5033857;28;20049;-90
2023/06/24 01:08:59;;;;;;;1999.90;999.90;;;16.50;1.00;;;;;;5049122;28;20087;-90
2023/06/24 01:11:27;;;;;;;1999.90;999.90;;;16.50;1.00;;;;;;5034693;28;20037;-90
2023/06/24 01:13:52;;;;;;;1999.90;999.90;;;16.30;1.00;;;;;;5032364;28;20163;-91
2023/06/24 01:16:33;;;;;;;1999.90;999.90;;;16.40;1.00;;;;;;5048627;28;20152;-92
2023/06/24 01:19:27;;;;;;;1999.90;999.90;;;16.40;1.00;;;;;;5047262;28;20053;-90
2023/06/24 01:22:28;;;;;;;1999.90;999.90;;;16.30;1.00;;;;;;5050534;28;20513;-91
2023/06/24 01:25:12;;;;;;;1999.90;999.90;;;16.30;1.00;;;;;;5044361;28;21051;-91
2023/06/24 01:28:01;;;;;;;1999.90;999.90;;;16.30;1.00;;;;;;5054077;28;20834;-90
2023/06/24 01:30:56;;;;;;;1999.90;999.90;;;16.30;1.00;;;;;;5048908;28;20088;-90
2023/06/24 01:33:30;;;;;;;1999.90;999.90;;;16.40;19.20;;;;;;5048874;28;20124;-91
2023/06/24 01:35:58;;;;;;;1999.90;999.90;;;16.40;36.30;;;;;;5033483;28;20136;-90
2023/06/24 01:38:38;;;;;;;1999.90;999.90;;;16.40;65.50;;;;;;5017313;28;20466;-91
2023/06/24 01:41:06;;;;;;;1999.90;999.90;;;16.40;84.90;;;;;;5050562;28;20105;-90
2023/06/24 01:43:33;;;;;;;1999.90;999.90;;;16.40;99.90;;;;;;5048570;28;20049;-91
2023/06/24 01:46:00;;;;;;;1999.90;999.90;;;16.40;99.90;;;;;;5051015;28;20080;-91
2023/06/24 01:48:28;;;;;;;1999.90;999.90;;;16.40;99.90;;;;;;5049684;28;20037;-90
2023/06/24 01:51:13;;;;;;;1999.90;999.90;;;16.50;99.90;;;;;;5049206;28;20048;-90
2023/06/24 01:53:44;;;;;;;1999.90;999.90;;;16.60;99.90;;;;;;5041104;28;20071;-91
2023/06/24 01:56:14;;;;;;;1999.90;999.90;;;16.70;99.90;;;;;;5027781;28;20469;-90
2023/06/24 01:58:43;;;;;;;1999.90;999.90;;;16.70;74.80;;;;;;5047828;28;20053;-91
2023/06/24 02:01:09;;;;;;;1999.90;999.90;;;16.70;88.50;;;;;;5030450;28;20095;-91
2023/06/24 02:03:36;;;;;;;1999.90;999.90;;;16.70;68.20;;;;;;5009200;28;20087;-90
2023/06/24 02:06:09;;;;;;;1999.90;999.90;;;16.80;80.70;;;;;;5032686;28;21032;-90
2023/06/24 02:08:37;;;;;;;1999.90;999.90;;;16.70;77.00;;;;;;5050015;28;20083;-90
2023/06/24 02:11:05;;;;;;;1999.90;999.90;;;16.80;80.30;;;;;;5033248;28;20092;-90
2023/06/24 02:13:38;;;;;;;1999.90;999.90;;;16.70;99.90;;;;;;5052967;28;20090;-90
2023/06/24 02:16:08;;;;;;;1999.90;999.90;;;16.70;38.00;;;;;;5049828;28;20060;-90
2023/06/24 02:18:43;;;;;;;1999.90;999.90;;;16.60;45.80;;;;;;5046426;28;20041;-91
2023/06/24 02:21:09;;;;;;;1999.90;999.90;;;16.60;20.30;;;;;;5039383;28;20045;-90
2023/06/24 02:23:39;;;;;;;1999.90;999.90;;;16.60;56.80;;;;;;5051057;28;20044;-90
2023/06/24 02:26:06;;;;;;;1999.90;999.90;;;16.60;59.80;;;;;;5050802;28;20496;-90
2023/06/24 02:28:37;;;;;;;1999.90;999.90;;;16.70;75.80;;;;;;5048661;28;20123;-90
2023/06/24 02:31:04;;;;;;;1999.90;999.90;;;16.70;56.00;;;;;;5031634;28;20060;-90
2023/06/24 02:33:29;;;;;;;1999.90;999.90;;;16.70;54.40;;;;;;5046561;28;20107;-90
2023/06/24 02:35:55;;;;;;;1999.90;999.90;;;16.70;39.80;;;;;;5049298;28;20389;-89
2023/06/24 02:38:22;;;;;;;1999.90;999.90;;;16.80;46.50;;;;;;5043060;28;20439;-90
2023/06/24 02:40:49;;;;;;;1999.90;999.90;;;16.80;57.80;;;;;;5008794;28;20631;-90
2023/06/24 02:43:16;;;;;;;1999.90;999.90;;;16.70;17.30;;;;;;5029842;28;20057;-90
2023/06/24 02:45:42;;;;;;;1999.90;999.90;;;16.70;36.40;;;;;;5031240;28;20393;-90
2023/06/24 02:48:10;;;;;;;1999.90;999.90;;;16.60;1.00;;;;;;5049381;28;20045;-90
2023/06/24 02:50:40;;;;;;;1999.90;999.90;;;16.50;14.60;;;;;;5032202;28;20150;-91
2023/06/24 02:53:07;;;;;;;1999.90;999.90;;;16.40;1.00;;;;;;5048500;28;20087;-91
2023/06/24 02:55:34;;;;;;;1999.90;999.90;;;16.50;36.70;;;;;;5046695;28;20055;-90
2023/06/24 02:58:02;;;;;;;1999.90;999.90;;;16.40;18.50;;;;;;5048841;28;20392;-90
2023/06/24 03:00:33;;;;;;;1999.90;999.90;;;16.50;80.80;;;;;;5049000;28;20150;-91
2023/06/24 03:03:03;;;;;;;1999.90;999.90;;;16.40;61.80;;;;;;5047213;28;20041;-90
2023/06/24 03:05:32;;;;;;;1999.90;999.90;;;16.40;29.70;;;;;;5032869;28;20037;-91
2023/06/24 03:07:58;;;;;;;1999.90;999.90;;;16.40;52.20;;;;;;5047472;28;20056;-90
2023/06/24 03:10:25;;;;;;;1999.90;999.90;;;16.30;30.20;;;;;;5050107;28;20122;-90
2023/06/24 03:12:54;;;;;;;1999.90;999.90;;;16.30;93.70;;;;;;5012407;28;20053;-90
2023/06/24 03:15:19;;;;;;;1999.90;999.90;;;16.30;46.30;;;;;;5047320;28;20094;-91
2023/06/24 03:17:48;;;;;;;1999.90;999.90;;;16.30;67.10;;;;;;5031288;28;20040;-90
2023/06/24 03:20:14;;;;;;;1999.90;999.90;;;16.40;91.00;;;;;;5049015;28;20045;-90
2023/06/24 03:22:39;;;;;;;1999.90;999.90;;;16.40;43.50;;;;;;5046663;28;20041;-90
2023/06/24 03:25:05;;;;;;;1999.90;999.90;;;16.40;56.40;;;;;;5029143;28;20045;-90
2023/06/24 03:27:31;;;;;;;1999.90;999.90;;;16.40;89.80;;;;;;5048869;28;20073;-90
2023/06/24 03:30:00;;;;;;;1999.90;999.90;;;15.90;22.80;;;;;;5028144;28;20063;-90
2023/06/24 03:32:25;;;;;;;1999.90;999.90;;;16.40;99.90;;;;;;5031854;28;20513;-90
2023/06/24 03:34:54;;;;;;;1999.90;999.90;;;16.50;99.90;;;;;;5046664;28;20131;-91
2023/06/24 03:37:19;;;;;;;1999.90;999.90;;;16.60;99.90;;;;;;5048570;28;20552;-90
2023/06/24 03:39:45;;;;;;;1999.90;999.90;;;16.40;75.00;;;;;;5029830;28;20047;-90
2023/06/24 03:42:11;;;;;;;1999.90;999.90;;;16.40;9.70;;;;;;5048905;28;20104;-91
2023/06/24 03:44:37;;;;;;;1999.90;999.90;;;16.40;7.70;;;;;;5043236;28;20037;-92
2023/06/24 03:47:03;;;;;;;1999.90;999.90;;;16.40;35.90;;;;;;5049279;28;20584;-90
2023/06/24 03:49:29;;;;;;;1999.90;999.90;;;16.40;1.00;;;;;;5030729;28;20049;-91
2023/06/24 03:51:55;;;;;;;1999.90;999.90;;;16.40;17.60;;;;;;5050336;28;20049;-90
2023/06/24 03:54:20;;;;;;;1999.90;999.90;;;16.40;27.00;;;;;;5030928;28;20396;-90
2023/06/24 03:56:46;;;;;;;1999.90;999.90;;;16.30;37.00;;;;;;5049940;28;20076;-90
2023/06/24 03:59:12;;;;;;;1999.90;999.90;;;16.30;1.00;;;;;;5046675;28;20049;-90
2023/06/24 04:01:38;;;;;;;1999.90;999.90;;;16.30;1.00;;;;;;5029975;28;20103;-91
2023/06/24 04:04:04;;;;;;;1999.90;999.90;;;16.40;5.80;;;;;;5029574;28;20502;-92
2023/06/24 04:06:30;;;;;;;1999.90;999.90;;;17.60;21.90;;;;;;5032418;28;20102;-91
2023/06/24 04:08:55;;;;;;;1999.90;999.90;;;16.40;5.00;;;;;;5031384;28;20049;-91
2023/06/24 04:11:21;;;;;;;1999.90;999.90;;;16.40;80.20;;;;;;5045916;28;20037;-90
2023/06/24 04:13:48;;;;;;;1999.90;999.90;;;;;;;;;;5031578;28;20124;-91
2023/06/24 04:16:14;;;;;;;1999.90;999.90;;;16.40;1.00;;;;;;5020633;28;20127;-90
2023/06/24 04:18:40;;;;;;;1999.90;999.90;;;16.40;1.00;;;;;;5050981;28;20798;-93
2023/06/24 04:21:06;;;;;;;1999.90;999.90;;;16.40;1.00;;;;;;5053669;28;20076;-91
2023/06/24 04:23:32;;;;;;;1999.90;999.90;;;16.40;1.00;;;;;;5018416;28;20619;-91
2023/06/24 04:25:59;;;;;;;1999.90;999.90;;;16.40;1.00;;;;;;5052537;28;20048;-90
2023/06/24 04:28:25;;;;;;;1999.90;999.90;;;16.40;12.50;;;;;;5018337;28;20124;-91
2023/06/24 04:30:51;;;;;;;1999.90;999.90;;;16.50;4.30;;;;;;5052748;28;20148;-90
2023/06/24 04:33:17;;;;;;;1999.90;999.90;;;16.50;1.00;;;;;;5051102;28;20324;-90
2023/06/24 04:35:44;;;;;;;1999.90;999.90;;;16.90;7.20;;;;;;5035421;28;20040;-90
2023/06/24 04:38:10;;;;;;;1999.90;999.90;;;16.70;1.00;;;;;;5047812;28;20072;-90
2023/06/24 04:40:36;;;;;;;1999.90;999.90;;;16.60;1.00;;;;;;5053421;28;20052;-90
2023/06/24 04:43:04;;;;;;;1999.90;999.90;;;16.80;1.00;;;;;;5018574;28;21049;-90
2023/06/24 04:45:31;;;;;;;1999.90;999.90;;;16.80;1.00;;;;;;5034440;28;20946;-90
2023/06/24 04:47:57;;;;;;;1999.90;999.90;;;16.70;1.00;;;;;;5035092;28;20048;-90
2023/06/24 04:50:23;;;;;;;1999.90;999.90;;;16.70;1.00;;;;;;5035535;28;20409;-90
2023/06/24 04:52:56;;;;;;;1999.90;999.90;;;16.80;1.00;;;;;;5032310;28;20132;-90
2023/06/24 04:55:25;;;;;;;1999.90;999.90;;;16.20;1.00;;;;;;5037148;28;20076;-90
2023/06/24 04:57:50;;;;;;;1999.90;999.90;;;16.80;5.40;;;;;;5067130;28;20049;-89
2023/06/24 05:00:16;;;;;;;1999.90;999.90;;;16.90;1.00;;;;;;5019606;28;20371;-89
2023/06/24 05:02:42;;;;;;;1999.90;999.90;;;17.00;1.00;;;;;;5038944;28;20049;-88
2023/06/24 05:05:08;;;;;;;1999.90;999.90;;;17.10;1.00;;;;;;5064325;28;20128;-90
2023/06/24 05:07:34;;;;;;;1999.90;999.90;;;17.20;1.00;;;;;;5059670;28;20052;-89
2023/06/24 05:10:00;;;;;;;1999.90;999.90;;;17.20;1.00;;;;;;5053977;28;20055;-87
2023/06/24 05:12:26;;;;;;;1999.90;999.90;;;17.20;1.00;;;;;;5058141;28;20056;-87
2023/06/24 05:14:52;;;;;;;1999.90;999.90;;;17.10;1.00;;;;;;5055634;28;20053;-88
2023/06/24 05:17:21;;;;;;;1999.90;999.90;;;17.20;1.00;;;;;;5066353;28;20092;-86
2023/06/24 05:19:47;;;;;;;1999.90;999.90;;;17.30;1.00;;;;;;5061318;28;20048;-91
2023/06/24 05:22:12;;;;;;;1999.90;999.90;;;17.40;1.00;;;;;;5066956;28;20036;-88
2023/06/24 05:24:38;;;;;;;1999.90;999.90;;;17.50;1.00;;;;;;5050382;28;20045;-88
2023/06/24 05:27:05;;;;;;;1999.90;999.90;;;17.60;1.00;;;;;;5069474;28;20043;-89
2023/06/24 05:29:34;;;;;;;1999.90;999.90;;;17.70;1.00;;;;;;5066221;28;20083;-89
2023/06/24 05:32:01;;;;;;;1999.90;999.90;;;17.80;1.00;;;;;;5062657;28;20060;-90
2023/06/24 05:34:27;;;;;;;1999.90;999.90;;;17.90;1.00;;;;;;5051909;28;20132;-89
2023/06/24 05:36:53;;;;;;;1999.90;999.90;;;17.90;1.00;;;;;;5034779;28;20128;-90
2023/06/24 05:39:20;;;;;;;1999.90;999.90;;;18.00;1.00;;;;;;5049285;28;20130;-91
2023/06/24 05:41:48;;;;;;;1999.90;999.90;;;18.00;1.00;;;;;;5048881;28;20045;-89
2023/06/24 05:44:14;;;;;;;1999.90;999.90;;;18.10;1.00;;;;;;5049440;28;20144;-89
2023/06/24 05:46:40;;;;;;;1999.90;999.90;;;18.20;1.00;;;;;;5017074;28;20124;-89
2023/06/24 05:49:05;;;;;;;1999.90;999.90;;;18.30;1.00;;;;;;5034435;28;20128;-90
2023/06/24 05:51:31;;;;;;;1999.90;999.90;;;18.30;1.00;;;;;;5036231;28;20041;-89
2023/06/24 05:54:00;;;;;;;1999.90;999.90;;;18.40;1.00;;;;;;5035313;28;20440;-89
2023/06/24 05:56:26;;;;;;;1999.90;999.90;;;18.50;1.00;;;;;;5035981;28;20045;-89
2023/06/24 05:58:52;;;;;;;1999.90;999.90;;;18.50;1.00;;;;;;5045912;28;20103;-92
2023/06/24 06:01:18;;;;;;;1999.90;999.90;;;18.40;1.00;;;;;;5029312;28;20061;-91
2023/06/24 06:03:43;;;;;;;1999.90;999.90;;;18.70;1.00;;;;;;5041421;28;20045;-91
2023/06/24 06:06:09;;;;;;;1999.90;999.90;;;18.80;99.90;;;;;;5047162;28;20049;-91
2023/06/24 06:08:35;;;;;;;1999.90;999.90;;;18.90;99.90;;;;;;5049156;28;20045;-90
2023/06/24 06:11:03;;;;;;;1999.90;999.90;;;19.00;1.00;;;;;;5031861;28;20052;-90
2023/06/24 06:13:30;;;;;;;1999.90;999.90;;;19.10;1.00;;;;;;5045840;28;20049;-90
2023/06/24 06:15:56;;;;;;;1999.90;999.90;;;19.10;99.90;;;;;;5045929;28;20082;-90
2023/06/24 06:18:22;;;;;;;1999.90;999.90;;;19.30;99.90;;;;;;5051064;28;20055;-90
2023/06/24 06:20:48;;;;;;;1999.90;999.90;;;19.40;99.90;;;;;;5051686;28;20055;-90
2023/06/24 06:23:15;;;;;;;1999.90;999.90;;;19.50;99.90;;;;;;5043733;28;20041;-90
2023/06/24 06:25:43;;;;;;;1999.90;999.90;;;19.50;99.90;;;;;;5050443;28;20178;-90
2023/06/24 06:28:08;;;;;;;1999.90;999.90;;;19.60;99.90;;;;;;5049676;28;20053;-90
2023/06/24 06:30:34;;;;;;;1999.90;999.90;;;19.70;99.90;;;;;;5048210;28;20597;-91
2023/06/24 06:33:00;;;;;;;1999.90;999.90;;;19.90;99.90;;;;;;5027798;28;20059;-90
2023/06/24 06:35:26;;;;;;;1999.90;999.90;;;20.00;99.90;;;;;;5050434;28;20037;-89
2023/06/24 06:37:53;;;;;;;1999.90;999.90;;;20.10;99.90;;;;;;5045249;28;20048;-90
2023/06/24 06:40:20;;;;;;;1999.90;999.90;;;20.20;99.90;;;;;;5033906;28;20048;-90
2023/06/24 06:42:45;;;;;;;1999.90;999.90;;;20.30;99.90;;;;;;5049194;28;20052;-90
2023/06/24 06:45:11;;;;;;;1999.90;999.90;;;20.40;99.90;;;;;;5030719;28;20051;-90
2023/06/24 06:47:39;;;;;;;1999.90;999.90;;;20.50;99.90;;;;;;5049772;28;20128;-91
2023/06/24 06:50:06;;;;;;;1999.90;999.90;;;20.60;99.90;;;;;;5016947;28;20511;-90
2023/06/24 06:52:32;;;;;;;1999.90;999.90;;;20.70;99.90;;;;;;5034199;28;20073;-90
2023/06/24 06:54:58;;;;;;;1999.90;999.90;;;20.80;99.90;;;;;;5029205;28;20083;-90
2023/06/24 06:57:23;;;;;;;1999.90;999.90;;;20.90;99.90;;;;;;5031588;28;20045;-90
2023/06/24 06:59:50;;;;;;;1999.90;999.90;;;20.90;99.90;;;;;;5029304;28;20041;-90
2023/06/24 07:02:17;;;;;;;1999.90;999.90;;;21.00;99.90;;;;;;5045157;28;20558;-91
2023/06/24 07:04:43;;;;;;;1999.90;999.90;;;21.10;99.90;;;;;;5033199;28;20500;-90
2023/06/24 07:07:09;;;;;;;1999.90;999.90;;;21.20;99.90;;;;;;5047577;28;20059;-90
2023/06/24 07:09:34;;;;;;;1999.90;999.90;;;21.40;99.90;;;;;;5046510;28;20037;-91
2023/06/24 07:12:03;;;;;;;1999.90;999.90;;;22.40;99.90;;;;;;5030072;28;20048;-91
2023/06/24 07:14:29;;;;;;;1999.90;999.90;;;24.00;99.90;;;;;;5046458;28;20497;-91
2023/06/24 07:16:55;;;;;;;1999.90;999.90;;;25.80;99.90;;;;;;5043818;28;20057;-91
2023/06/24 07:19:20;;;;;;;1999.90;999.90;;;26.60;99.90;;;;;;5029595;28;20053;-91
2023/06/24 07:21:46;;;;;;;1999.90;999.90;;;26.50;99.90;;;;;;5015414;28;20061;-91
2023/06/24 07:24:12;;;;;;;1999.90;999.90;;;26.20;99.90;;;;;;5030082;28;20045;-91
2023/06/24 07:26:37;;;;;;;1999.90;999.90;;;25.70;99.90;;;;;;5050421;28;20045;-91
2023/06/24 07:29:07;;;;;;;1999.90;999.90;;;25.60;99.90;;;;;;5046873;28;20044;-92
2023/06/24 07:31:33;;;;;;;1999.90;999.90;;;25.30;99.90;;;;;;5033025;28;20057;-91
2023/06/24 07:33:59;;;;;;;1999.90;999.90;;;25.00;99.90;;;;;;5048097;28;20069;-90
2023/06/24 07:36:25;;;;;;;1999.90;999.90;;;24.00;99.90;;;;;;5044717;28;20045;-91
2023/06/24 07:38:51;;;;;;;1999.90;999.90;;;24.90;99.90;;;;;;5027481;28;20231;-91
2023/06/24 07:41:37;;;;;;;1999.90;999.90;;;24.70;99.90;;;;;;5024432;28;20033;-91
2023/06/24 07:44:11;;;;;;;1999.90;999.90;;;24.60;99.90;;;;;;5043865;28;20044;-92
2023/06/24 07:46:37;;;;;;;1999.90;999.90;;;24.80;99.90;;;;;;5049055;28;20708;-91
2023/06/24 07:49:12;;;;;;;1999.90;999.90;;;25.20;99.90;;;;;;5033154;28;20143;-92
2023/06/24 07:51:38;;;;;;;1999.90;999.90;;;;;;;;;;5047495;28;20048;-86
2023/06/24 07:54:04;;;;;;;1999.90;999.90;;;26.10;99.90;;;;;;5049896;28;20080;-89
2023/06/24 07:56:30;;;;;;;1999.90;999.90;;;26.90;99.90;;;;;;5039285;28;20460;-87
2023/06/24 07:58:56;;;;;;;1999.90;999.90;;;27.70;99.90;;;;;;5053239;28;20056;-87
2023/06/24 08:01:22;;;;;;;1999.90;999.90;;;28.20;99.90;;;;;;5048020;28;20102;-88
2023/06/24 08:03:47;;;;;;;1999.90;999.90;;;28.30;99.90;;;;;;5036802;28;20045;-88
2023/06/24 08:06:13;;;;;;;1999.90;999.90;;;28.20;99.90;;;;;;5053051;28;20055;-88
2023/06/24 08:08:39;;;;;;;1999.90;999.90;;;27.70;99.90;;;;;;5050590;28;20315;-88
2023/06/24 08:11:05;;;;;;;1999.90;999.90;;;27.90;99.90;;;;;;5049489;28;20056;-87
2023/06/24 08:13:34;;;;;;;1999.90;999.90;;;28.20;99.90;;;;;;5052783;28;20489;-88
2023/06/24 08:15:59;;;;;;;1999.90;999.90;;;28.60;99.90;;;;;;5049172;28;20386;-88
2023/06/24 08:18:25;;;;;;;1999.90;999.90;;;29.00;99.90;;;;;;5037232;28;20068;-88
2023/06/24 08:20:50;;;;;;;1999.90;999.90;;;29.20;99.90;;;;;;5048537;28;20127;-88
2023/06/24 08:23:16;;;;;;;1999.90;999.90;;;29.20;99.90;;;;;;5035228;28;20056;-88
2023/06/24 08:25:42;;;;;;;1999.90;999.90;;;29.20;99.90;;;;;;5034956;28;20068;-88
2023/06/24 08:28:07;;;;;;;1999.90;999.90;;;29.90;99.90;;;;;;5036475;28;20056;-88
2023/06/24 08:30:33;;;;;;;1999.90;999.90;;;30.50;99.90;;;;;;5014564;28;20052;-89
2023/06/24 08:32:59;;;;;;;1999.90;999.90;;;30.50;99.90;;;;;;5051699;28;20086;-88
2023/06/24 08:35:25;;;;;;;1999.90;999.90;;;30.00;99.90;;;;;;5051461;28;20476;-89
2023/06/24 08:37:50;;;;;;;1999.90;999.90;;;29.70;99.90;;;;;;5035621;28;20048;-88
2023/06/24 08:40:17;;;;;;;1997.80;999.90;;;30.00;99.90;;;;;;5030825;28;20052;-89
2023/06/24 08:42:44;;;;;;;1999.90;999.90;;;29.60;99.90;;;;;;5052976;28;20106;-90
2023/06/24 08:45:12;;;;;;;1999.90;999.90;;;29.20;99.90;;;;;;5050619;28;20048;-89
2023/06/24 08:47:47;;;;;;;1999.90;999.90;;;29.40;99.90;;;;;;5048278;28;20056;-89
2023/06/24 08:50:13;;;;;;;1999.90;999.90;;;29.50;99.90;;;;;;5053566;28;20041;-93
2023/06/24 08:53:02;;;;;;;1997.30;999.90;;;29.70;99.90;;;;;;5055346;28;20084;-90
2023/06/24 08:55:49;;;;;;;1999.90;999.90;;;29.90;99.90;;;;;;5053160;28;20051;-93
2023/06/24 08:58:22;;;;;;;1552.80;999.90;;;28.80;99.90;;;;;;5052733;28;20048;-92
2023/06/24 09:00:58;;;;;;;;;;;;;;;;;;;;;
2023/06/24 09:07:13;;;;;;;1999.90;999.90;;;29.30;99.90;;;;;;5055538;28;20173;-91
2023/06/24 09:12:56;;;;;;;1860.70;999.90;;;29.90;99.90;;;;;;5054751;28;20448;-90
2023/06/24 09:15:34;;;;;;;1999.90;999.90;;;31.80;99.90;;;;;;5040752;28;20457;-91
2023/06/24 09:18:06;;;;;;;1999.90;999.90;;;33.40;99.90;;;;;;5044245;28;20051;-90
2023/06/24 09:20:44;;;;;;;1999.90;999.90;;;34.60;99.90;;;;;;5026742;28;20052;-92
2023/06/24 09:23:10;;;;;;;1999.90;999.90;;;35.60;99.90;;;;;;5028525;28;20049;-91
2023/06/24 09:25:38;;;;;;;1999.90;999.90;;;36.10;99.90;;;;;;5029382;28;20089;-91
2023/06/24 09:28:10;;;;;;;1999.90;999.90;;;36.50;99.90;;;;;;5049643;28;20060;-92
2023/06/24 09:31:22;;;;;;;1999.90;999.90;;;35.80;99.90;;;;;;5049381;28;20045;-92
2023/06/24 09:37:06;;;;;;;1999.90;999.90;;;36.10;99.90;;;;;;5053965;28;20485;-91
2023/06/24 09:39:45;;;;;;;1999.90;999.90;;;36.70;99.90;;;;;;5037537;28;20048;-92
2023/06/24 09:42:11;;;;;;;1999.90;999.90;;;37.30;99.90;;;;;;5037642;28;20063;-92
2023/06/24 09:44:40;;;;;;;1999.90;999.90;;;37.80;99.90;;;;;;5054347;28;20045;-91
2023/06/24 09:47:15;;;;;;;1999.90;999.90;;;38.60;99.90;;;;;;5037550;28;20059;-93
2023/06/24 09:49:41;;;;;;;1999.90;999.90;;;38.60;99.90;;;;;;5037606;28;20059;-92
2023/06/24 09:52:15;;;;;;;1999.90;999.90;;;38.70;99.90;;;;;;5036916;28;20404;-91
2023/06/24 09:55:11;;;;;;;1999.90;999.90;;;38.30;99.90;;;;;;5052509;28;20544;-92
2023/06/24 09:57:37;;;;;;;1999.90;999.90;;;36.80;99.90;;;;;;5034075;28;20429;-88
2023/06/24 10:00:06;;;;;;;1999.90;999.90;;;36.70;99.90;;;;;;5048793;28;20048;-90
2023/06/24 10:02:33;;;;;;;1999.90;999.90;;;37.10;99.90;;;;;;5047271;28;20037;-88
2023/06/24 10:05:00;;;;;;;1999.90;999.90;;;37.80;99.90;;;;;;5051463;28;20053;-87
2023/06/24 10:07:27;;;;;;;;;;;38.70;99.90;;;;;;5063920;28;20056;-89
2023/06/24 10:09:53;;;;;;;1999.90;999.90;;;39.20;99.90;;;;;;5052823;28;20003;-90
2023/06/24 10:12:19;;;;;;;1999.90;999.90;;;39.60;99.90;;;;;;5051844;28;20049;-89
2023/06/24 10:14:47;;;;;;;1999.90;999.90;;;40.20;99.90;;;;;;5042503;28;20036;-92
2023/06/24 10:17:14;;;;;;;1999.90;999.90;;;40.00;99.90;;;;;;5051951;28;20448;-90
2023/06/24 10:19:40;;;;;;;1999.90;999.90;;;40.20;99.90;;;;;;5031888;28;20469;-92
2023/06/24 10:22:13;;;;;;;;;;;40.20;99.90;;;;;;5049687;28;20397;-91
2023/06/24 10:24:42;;;;;;;1999.90;999.90;;;39.40;99.90;;;;;;5050527;28;19974;-88
2023/06/24 10:27:22;;;;;;;1999.90;999.90;;;39.80;99.90;;;;;;5034742;28;20060;-89
2023/06/24 10:29:52;;;;;;;1999.90;999.90;;;40.50;99.90;;;;;;5023121;28;20063;-89
2023/06/24 10:32:21;;;;;;;1999.90;999.90;;;41.20;99.90;;;;;;5048452;28;20449;-91
2023/06/24 10:34:56;;;;;;;1999.90;999.90;;;40.80;99.90;;;;;;5048297;28;20045;-89
2023/06/24 10:37:31;;;;;;;1999.90;999.90;;;40.90;99.90;;;;;;5031783;28;20067;-90
2023/06/24 10:40:01;;;;;;;1999.90;999.90;;;41.20;99.90;;;;;;5050237;28;20049;-87
2023/06/24 10:42:42;;;;;;;1999.90;999.90;;;40.80;99.90;;;;;;5049112;28;20049;-89
2023/06/24 10:45:12;;;;;;;1999.90;999.90;;;39.40;99.90;;;;;;5049414;28;20083;-86
2023/06/24 10:47:45;;;;;;;1999.90;999.90;;;37.90;99.90;;;;;;5043357;28;20053;-91
2023/06/24 10:50:16;;;;;;;1999.90;999.90;;;37.20;99.90;;;;;;5039206;28;20045;-89
2023/06/24 10:52:44;;;;;;;1999.90;999.90;;;37.60;99.90;;;;;;5044633;28;20049;-89
2023/06/24 10:55:12;;;;;;;1999.90;999.90;;;37.70;99.90;;;;;;5037530;28;20045;-90
2023/06/24 10:57:40;;;;;;;1999.90;999.90;;;38.20;99.90;;;;;;5034490;28;20413;-89
2023/06/24 11:00:06;;;;;;;1999.90;999.90;;;38.00;99.90;;;;;;5018627;28;20081;-90
2023/06/24 11:02:32;;;;;;;1999.90;999.90;;;37.90;99.90;;;;;;5037517;28;20071;-90
2023/06/24 11:05:16;;;;;;;1999.90;999.90;;;38.70;99.90;;;;;;5053387;28;20178;-92
2023/06/24 11:07:41;;;;;;;1999.90;999.90;;;37.70;99.90;;;;;;5048720;28;20053;-87
2023/06/24 11:10:16;;;;;;;1999.90;999.90;;;37.50;99.90;;;;;;5052725;28;20052;-90
2023/06/24 11:12:43;;;;;;;1999.90;999.90;;;37.70;99.90;;;;;;5053728;28;20072;-89
2023/06/24 11:15:10;;;;;;;;;;;38.20;99.90;;;;;;5035926;28;20087;-89
2023/06/24 11:17:40;;;;;;;1999.90;999.90;;;38.40;99.90;;;;;;5052107;28;20043;-90
2023/06/24 11:20:13;;;;;;;1999.90;999.90;;;39.20;99.90;;;;;;5035838;28;20045;-89
2023/06/24 11:22:43;;;;;;;1999.90;999.90;;;39.20;99.90;;;;;;5048445;28;20073;-89
2023/06/24 11:25:19;;;;;;;1999.90;999.90;;;38.80;99.90;;;;;;5051948;28;20138;-88
2023/06/24 11:27:45;;;;;;;1999.90;999.90;;;39.50;99.90;;;;;;5058221;28;20110;-89
2023/06/24 11:30:11;;;;;;;1999.90;999.90;;;39.50;99.90;;;;;;5053562;28;20129;-88
2023/06/24 11:32:42;;;;;;;1999.90;999.90;;;39.40;99.90;;;;;;5059253;28;20048;-91
2023/06/24 11:35:14;;;;;;;1999.90;999.90;;;38.90;99.90;;;;;;5059216;28;20060;-89
2023/06/24 11:37:47;;;;;;;1999.90;999.90;;;39.20;99.90;;;;;;5059836;28;22375;-89
2023/06/24 11:43:48;;;;;;;1999.90;999.90;;;40.60;99.90;;;;;;5059008;28;20064;-90
2023/06/24 11:46:35;;;;;;;1999.90;999.90;;;40.70;99.90;;;;;;5032683;28;20041;-90
2023/06/24 11:49:08;;;;;;;1999.90;999.90;;;40.30;99.90;;;;;;5054430;28;20041;-89
2023/06/24 11:51:35;;;;;;;1999.90;999.90;;;40.10;99.90;;;;;;5054990;28;20389;-90
2023/06/24 11:54:05;;;;;;;1999.90;999.90;;;39.50;99.90;;;;;;5056712;28;20044;-90
2023/06/24 11:56:41;;;;;;;1999.90;999.90;;;38.80;99.90;;;;;;5024302;28;20144;-90
2023/06/24 11:59:18;;;;;;;1999.90;999.90;;;39.10;99.90;;;;;;5057376;28;20048;-88
2023/06/24 12:01:45;;;;;;;1999.90;999.90;;;40.10;99.90;;;;;;5036827;28;20098;-89
2023/06/24 12:04:14;;;;;;;1999.90;999.90;;;40.60;99.90;;;;;;5058469;28;20053;-89
2023/06/24 12:06:41;;;;;;;1999.90;999.90;;;40.50;99.90;;;;;;5057842;28;20047;-89
2023/06/24 12:09:11;;;;;;;1999.90;999.90;;;40.60;99.90;;;;;;5041874;28;20049;-89
2023/06/24 12:11:38;;;;;;;1999.90;999.90;;;41.40;99.90;;;;;;5052739;28;20127;-93
2023/06/24 12:14:05;;;;;;;1999.90;999.90;;;41.60;99.90;;;;;;5036509;28;20091;-91
2023/06/24 12:16:30;;;;;;;1999.90;999.90;;;42.00;99.90;;;;;;5038570;28;20049;-92
2023/06/24 12:18:56;;;;;;;1999.90;999.90;;;42.30;99.90;;;;;;5055811;28;20049;-90
2023/06/24 12:21:25;;;;;;;1999.90;999.90;;;42.50;99.90;;;;;;5057868;28;20052;-91
2023/06/24 12:24:06;;;;;;;1999.90;999.90;;;41.70;99.90;;;;;;5041476;28;20110;-91
2023/06/24 12:26:35;;;;;;;1999.90;999.90;;;39.70;99.90;;;;;;5058604;28;20564;-91